createdAt,value
2022-10-21T00:00:57.755Z,15.53
2022-10-21T00:02:06.160Z,15.53
2022-10-21T00:03:08.146Z,15.51
2022-10-21T00:04:10.675Z,15.53
2022-10-21T00:05:12.693Z,15.50
2022-10-21T00:06:15.180Z,15.51
2022-10-21T00:07:16.744Z,15.51
2022-10-21T00:08:21.925Z,15.52
2022-10-21T00:09:23.451Z,15.51
2022-10-21T00:10:26.047Z,15.51
2022-10-21T00:11:27.612Z,15.50
2022-10-21T00:12:30.688Z,15.49
2022-10-21T00:13:34.081Z,15.49
2022-10-21T00:14:37.007Z,15.47
2022-10-21T00:15:38.739Z,15.47
2022-10-21T00:16:41.228Z,15.44
2022-10-21T00:17:43.279Z,15.43
2022-10-21T00:18:47.506Z,15.41
2022-10-21T00:19:49.415Z,15.41
2022-10-21T00:20:52.042Z,15.40
2022-10-21T00:21:53.594Z,15.39
2022-10-21T00:22:56.127Z,15.38
2022-10-21T00:23:59.072Z,15.38
2022-10-21T00:25:01.901Z,15.38
2022-10-21T00:26:03.549Z,15.39
2022-10-21T00:27:06.093Z,15.38
2022-10-21T00:28:07.670Z,15.39
2022-10-21T00:29:10.476Z,15.40
2022-10-21T00:30:13.488Z,15.41
2022-10-21T00:31:17.203Z,15.43
2022-10-21T00:32:18.831Z,15.42
2022-10-21T00:33:22.108Z,15.43
2022-10-21T00:34:27.040Z,15.44
2022-10-21T00:35:34.603Z,15.44
2022-10-21T00:36:36.156Z,15.45
2022-10-21T00:37:38.978Z,15.44
2022-10-21T00:38:41.679Z,15.44
2022-10-21T00:39:45.543Z,15.43
2022-10-21T00:40:47.168Z,15.42
2022-10-21T00:41:49.696Z,15.41
2022-10-21T00:42:51.212Z,15.41
2022-10-21T00:43:58.822Z,15.41
2022-10-21T00:45:17.229Z,15.39
2022-10-21T00:46:19.760Z,15.39
2022-10-21T00:47:22.364Z,15.37
2022-10-21T00:48:33.703Z,15.39
2022-10-21T00:49:39.615Z,15.37
2022-10-21T00:50:49.160Z,15.36
2022-10-21T00:51:54.893Z,15.36
2022-10-21T00:52:59.655Z,15.35
2022-10-21T00:54:02.670Z,15.34
2022-10-21T00:55:08.014Z,15.35
2022-10-21T00:56:16.621Z,15.35
2022-10-21T00:57:21.101Z,15.33
2022-10-21T00:58:26.386Z,15.33
2022-10-21T00:59:32.428Z,15.32
2022-10-21T01:00:33.924Z,15.31
2022-10-21T01:01:36.605Z,15.31
2022-10-21T01:02:38.256Z,15.29
2022-10-21T01:03:40.929Z,15.28
2022-10-21T01:04:43.144Z,15.28
2022-10-21T01:05:46.414Z,15.27
2022-10-21T01:06:48.839Z,15.26
2022-10-21T01:07:52.513Z,15.26
2022-10-21T01:08:56.568Z,15.25
2022-10-21T01:09:59.495Z,15.23
2022-10-21T01:11:03.552Z,15.23
2022-10-21T01:12:16.114Z,15.22
2022-10-21T01:13:28.376Z,15.20
2022-10-21T01:14:50.963Z,15.18
2022-10-21T01:15:59.759Z,15.17
2022-10-21T01:17:26.446Z,15.16
2022-10-21T01:18:44.156Z,15.13
2022-10-21T01:20:18.850Z,15.12
2022-10-21T01:21:31.608Z,15.10
2022-10-21T01:22:52.701Z,15.08
2022-10-21T01:24:37.162Z,15.06
2022-10-21T01:26:05.414Z,15.05
2022-10-21T01:27:27.078Z,15.03
2022-10-21T01:28:40.084Z,15.01
2022-10-21T01:30:12.682Z,15.01
2022-10-21T01:31:21.434Z,14.99
2022-10-21T01:32:33.455Z,14.99
2022-10-21T01:33:41.124Z,14.99
2022-10-21T01:34:51.050Z,14.98
2022-10-21T01:35:57.890Z,14.98
2022-10-21T01:37:11.117Z,14.97
2022-10-21T01:38:19.917Z,14.96
2022-10-21T01:39:29.095Z,14.96
2022-10-21T01:40:37.328Z,14.96
2022-10-21T01:41:43.278Z,14.95
2022-10-21T01:42:52.524Z,14.95
2022-10-21T01:44:03.186Z,14.94
2022-10-21T01:45:12.613Z,14.95
2022-10-21T01:46:23.672Z,14.93
2022-10-21T01:47:31.293Z,14.93
2022-10-21T01:48:38.492Z,14.93
2022-10-21T01:49:47.954Z,14.93
2022-10-21T01:50:53.550Z,14.94
2022-10-21T01:51:56.649Z,14.91
2022-10-21T01:53:02.662Z,14.92
2022-10-21T01:54:08.802Z,14.92
2022-10-21T01:55:15.547Z,14.93
2022-10-21T01:56:18.894Z,14.91
2022-10-21T01:57:24.398Z,14.92
2022-10-21T01:58:31.067Z,14.92
2022-10-21T01:59:33.891Z,14.92
2022-10-21T02:00:38.081Z,14.91
2022-10-21T02:01:44.030Z,14.93
2022-10-21T02:02:49.483Z,14.92
2022-10-21T02:04:01.229Z,14.91
2022-10-21T02:05:11.727Z,14.92
2022-10-21T02:06:14.032Z,14.90
2022-10-21T02:07:16.519Z,14.90
2022-10-21T02:08:18.193Z,14.90
2022-10-21T02:09:20.795Z,14.91
2022-10-21T02:10:25.350Z,14.90
2022-10-21T02:11:29.436Z,14.90
2022-10-21T02:12:33.728Z,14.89
2022-10-21T02:13:42.720Z,14.91
2022-10-21T02:14:48.657Z,14.91
2022-10-21T02:15:53.651Z,14.90
2022-10-21T02:16:59.371Z,14.90
2022-10-21T02:18:05.567Z,14.91
2022-10-21T02:19:15.194Z,14.90
2022-10-21T02:20:18.021Z,14.91
2022-10-21T02:21:24.219Z,14.90
2022-10-21T02:22:28.332Z,14.90
2022-10-21T02:23:39.100Z,14.90
2022-10-21T02:24:46.199Z,14.91
2022-10-21T02:25:51.704Z,14.91
2022-10-21T02:26:53.598Z,14.91
2022-10-21T02:27:56.594Z,14.92
2022-10-21T02:28:59.279Z,14.93
2022-10-21T02:30:02.504Z,14.92
2022-10-21T02:31:17.999Z,14.93
2022-10-21T02:32:29.867Z,14.91
2022-10-21T02:33:43.797Z,14.93
2022-10-21T02:35:01.413Z,14.93
2022-10-21T02:36:12.601Z,14.93
2022-10-21T02:37:22.575Z,14.92
2022-10-21T02:38:28.410Z,14.93
2022-10-21T02:39:36.661Z,14.92
2022-10-21T02:40:42.955Z,14.92
2022-10-21T02:41:46.943Z,14.91
2022-10-21T02:42:52.418Z,14.91
2022-10-21T02:43:59.010Z,14.91
2022-10-21T02:45:02.092Z,14.90
2022-10-21T02:46:08.922Z,14.90
2022-10-21T02:48:20.052Z,14.89
2022-10-21T02:49:22.818Z,14.89
2022-10-21T02:50:25.316Z,14.87
2022-10-21T02:51:26.845Z,14.89
2022-10-21T02:52:29.334Z,14.88
2022-10-21T02:53:31.036Z,14.88
2022-10-21T02:54:33.571Z,14.87
2022-10-21T02:55:35.160Z,14.88
2022-10-21T02:56:37.604Z,14.88
2022-10-21T02:57:39.427Z,14.87
2022-10-21T02:58:42.138Z,14.87
2022-10-21T02:59:43.703Z,14.86
2022-10-21T03:00:46.283Z,14.87
2022-10-21T03:01:47.871Z,14.87
2022-10-21T03:02:50.338Z,14.87
2022-10-21T03:03:53.227Z,14.88
2022-10-21T03:04:55.939Z,14.89
2022-10-21T03:05:58.890Z,14.89
2022-10-21T03:07:01.535Z,14.88
2022-10-21T03:08:03.293Z,14.88
2022-10-21T03:09:06.264Z,14.88
2022-10-21T03:10:08.895Z,14.88
2022-10-21T03:11:11.492Z,14.89
2022-10-21T03:12:13.058Z,14.89
2022-10-21T03:13:15.718Z,14.90
2022-10-21T03:14:18.572Z,14.89
2022-10-21T03:15:20.297Z,14.89
2022-10-21T03:16:22.832Z,14.89
2022-10-21T03:17:25.433Z,14.88
2022-10-21T03:18:28.199Z,14.88
2022-10-21T03:19:31.205Z,14.87
2022-10-21T03:20:33.820Z,14.87
2022-10-21T03:21:35.492Z,14.86
2022-10-21T03:22:38.020Z,14.87
2022-10-21T03:23:39.848Z,14.86
2022-10-21T03:24:42.366Z,14.88
2022-10-21T03:25:43.949Z,14.87
2022-10-21T03:26:46.534Z,14.86
2022-10-21T03:27:49.717Z,14.86
2022-10-21T03:28:52.350Z,14.86
2022-10-21T03:29:53.904Z,14.86
2022-10-21T03:30:56.479Z,14.86
2022-10-21T03:31:58.048Z,14.85
2022-10-21T03:33:00.530Z,14.85
2022-10-21T03:34:02.108Z,14.84
2022-10-21T03:35:07.148Z,14.84
2022-10-21T03:36:09.956Z,14.83
2022-10-21T03:37:11.994Z,14.85
2022-10-21T03:38:14.882Z,14.84
2022-10-21T03:39:16.655Z,14.83
2022-10-21T03:40:19.640Z,14.83
2022-10-21T03:41:21.176Z,14.83
2022-10-21T03:42:23.681Z,14.83
2022-10-21T03:43:25.322Z,14.83
2022-10-21T03:44:27.782Z,14.83
2022-10-21T03:45:29.310Z,14.83
2022-10-21T03:46:31.948Z,14.82
2022-10-21T03:47:33.469Z,14.83
2022-10-21T03:48:35.952Z,14.83
2022-10-21T03:49:37.488Z,14.83
2022-10-21T03:50:41.314Z,14.84
2022-10-21T03:51:42.829Z,14.84
2022-10-21T03:52:45.406Z,14.83
2022-10-21T03:53:46.930Z,14.85
2022-10-21T03:54:49.406Z,14.85
2022-10-21T03:55:56.334Z,14.85
2022-10-21T03:56:59.573Z,14.85
2022-10-21T03:58:01.115Z,14.85
2022-10-21T03:59:03.847Z,14.85
2022-10-21T04:00:06.628Z,14.85
2022-10-21T04:01:13.663Z,14.86
2022-10-21T04:02:15.243Z,14.85
2022-10-21T04:03:17.751Z,14.86
2022-10-21T04:04:20.344Z,14.86
2022-10-21T04:05:21.872Z,14.86
2022-10-21T04:06:25.806Z,14.88
2022-10-21T04:07:27.533Z,14.88
2022-10-21T04:08:30.071Z,14.89
2022-10-21T04:09:31.610Z,14.89
2022-10-21T04:10:34.070Z,14.88
2022-10-21T04:11:35.591Z,14.89
2022-10-21T04:12:38.426Z,14.88
2022-10-21T04:13:40.164Z,14.88
2022-10-21T04:14:42.646Z,14.88
2022-10-21T04:15:45.511Z,14.88
2022-10-21T04:16:50.511Z,14.89
2022-10-21T04:18:02.381Z,14.90
2022-10-21T04:19:04.895Z,14.90
2022-10-21T04:20:07.798Z,14.90
2022-10-21T04:21:10.544Z,14.91
2022-10-21T04:22:13.411Z,14.92
2022-10-21T04:23:15.914Z,14.93
2022-10-21T04:24:17.459Z,14.95
2022-10-21T04:25:20.101Z,14.95
2022-10-21T04:26:21.668Z,14.95
2022-10-21T04:27:24.176Z,14.96
2022-10-21T04:28:25.781Z,14.95
2022-10-21T04:29:28.263Z,14.97
2022-10-21T04:30:29.823Z,14.98
2022-10-21T04:31:32.456Z,14.98
2022-10-21T04:32:43.840Z,14.99
2022-10-21T04:33:46.421Z,14.99
2022-10-21T04:34:47.949Z,15.00
2022-10-21T04:35:50.416Z,14.99
2022-10-21T04:36:52.068Z,15.01
2022-10-21T04:37:55.967Z,15.03
2022-10-21T04:38:57.507Z,15.02
2022-10-21T04:39:59.986Z,15.03
2022-10-21T04:41:03.452Z,15.04
2022-10-21T04:42:06.011Z,15.05
2022-10-21T04:43:07.522Z,15.05
2022-10-21T04:44:10.301Z,15.05
2022-10-21T04:45:11.815Z,15.06
2022-10-21T04:46:16.869Z,15.07
2022-10-21T04:47:18.633Z,15.06
2022-10-21T04:48:21.236Z,15.08
2022-10-21T04:49:22.884Z,15.09
2022-10-21T04:50:25.957Z,15.10
2022-10-21T04:51:27.771Z,15.11
2022-10-21T04:52:30.658Z,15.11
2022-10-21T04:53:33.555Z,15.12
2022-10-21T04:54:36.071Z,15.13
2022-10-21T04:55:39.113Z,15.14
2022-10-21T04:56:41.659Z,15.15
2022-10-21T04:57:43.182Z,15.16
2022-10-21T04:58:45.767Z,15.16
2022-10-21T04:59:47.545Z,15.16
2022-10-21T05:00:50.873Z,15.17
2022-10-21T05:01:53.579Z,15.18
2022-10-21T05:02:55.169Z,15.19
2022-10-21T05:03:57.788Z,15.19
2022-10-21T05:04:59.314Z,15.19
2022-10-21T05:06:01.873Z,15.19
2022-10-21T05:07:03.595Z,15.18
2022-10-21T05:08:11.442Z,15.19
2022-10-21T05:09:15.064Z,15.18
2022-10-21T05:10:17.802Z,15.17
2022-10-21T05:11:19.356Z,15.19
2022-10-21T05:12:22.301Z,15.19
2022-10-21T05:13:23.852Z,15.19
2022-10-21T05:14:26.359Z,15.21
2022-10-21T05:15:27.955Z,15.21
2022-10-21T05:16:30.436Z,15.20
2022-10-21T05:17:31.952Z,15.21
2022-10-21T05:18:34.510Z,15.22
2022-10-21T05:19:35.987Z,15.21
2022-10-21T05:20:41.139Z,15.20
2022-10-21T05:21:42.808Z,15.18
2022-10-21T05:22:45.316Z,15.18
2022-10-21T05:23:46.991Z,15.17
2022-10-21T05:24:50.776Z,15.16
2022-10-21T05:25:52.397Z,15.15
2022-10-21T05:26:54.921Z,15.16
2022-10-21T05:27:56.420Z,15.15
2022-10-21T05:28:59.492Z,15.13
2022-10-21T05:30:01.052Z,15.11
2022-10-21T05:31:03.627Z,15.11
2022-10-21T05:32:05.665Z,15.11
2022-10-21T05:33:08.124Z,15.11
2022-10-21T05:34:10.589Z,15.10
2022-10-21T05:35:12.320Z,15.10
2022-10-21T05:36:14.803Z,15.10
2022-10-21T05:37:16.418Z,15.10
2022-10-21T05:38:19.036Z,15.09
2022-10-21T05:39:21.579Z,15.09
2022-10-21T05:40:24.591Z,15.11
2022-10-21T05:41:27.211Z,15.10
2022-10-21T05:42:28.758Z,15.10
2022-10-21T05:43:31.639Z,15.10
2022-10-21T05:44:33.319Z,15.11
2022-10-21T05:45:35.911Z,15.11
2022-10-21T05:46:38.607Z,15.11
2022-10-21T05:47:40.970Z,15.12
2022-10-21T05:48:43.536Z,15.13
2022-10-21T05:49:45.123Z,15.15
2022-10-21T05:50:48.351Z,15.15
2022-10-21T05:51:49.896Z,15.16
2022-10-21T05:52:53.891Z,15.18
2022-10-21T05:53:58.667Z,15.16
2022-10-21T05:55:00.249Z,15.17
2022-10-21T05:56:05.984Z,15.19
2022-10-21T05:57:07.649Z,15.19
2022-10-21T05:58:10.257Z,15.20
2022-10-21T05:59:12.778Z,15.21
2022-10-21T06:00:14.581Z,15.22
2022-10-21T06:01:18.609Z,15.25
2022-10-21T06:02:20.301Z,15.25
2022-10-21T06:03:23.642Z,15.28
2022-10-21T06:04:26.603Z,15.29
2022-10-21T06:05:31.640Z,15.31
2022-10-21T06:06:34.568Z,15.32
2022-10-21T06:07:36.963Z,15.35
2022-10-21T06:08:40.431Z,15.35
2022-10-21T06:09:42.118Z,15.36
2022-10-21T06:10:45.177Z,15.38
2022-10-21T06:11:49.487Z,15.39
2022-10-21T06:12:52.202Z,15.40
2022-10-21T06:13:53.838Z,15.40
2022-10-21T06:14:56.599Z,15.42
2022-10-21T06:15:58.969Z,15.42
2022-10-21T06:17:01.795Z,15.43
2022-10-21T06:18:04.579Z,15.44
2022-10-21T06:19:06.163Z,15.45
2022-10-21T06:20:09.429Z,15.47
2022-10-21T06:21:11.841Z,15.46
2022-10-21T06:22:15.865Z,15.49
2022-10-21T06:23:17.654Z,15.48
2022-10-21T06:24:20.107Z,15.49
2022-10-21T06:25:21.807Z,15.50
2022-10-21T06:26:24.355Z,15.51
2022-10-21T06:27:27.238Z,15.52
2022-10-21T06:28:31.694Z,15.54
2022-10-21T06:29:33.304Z,15.53
2022-10-21T06:30:36.476Z,15.54
2022-10-21T06:31:38.037Z,15.54
2022-10-21T06:32:40.528Z,15.55
2022-10-21T06:33:42.335Z,15.55
2022-10-21T06:34:44.863Z,15.55
2022-10-21T06:35:46.995Z,15.56
2022-10-21T06:36:49.691Z,15.57
2022-10-21T06:37:52.220Z,15.57
2022-10-21T06:38:53.978Z,15.59
2022-10-21T06:39:56.832Z,15.59
2022-10-21T06:41:02.089Z,15.60
2022-10-21T06:42:04.701Z,15.60
2022-10-21T06:43:07.611Z,15.61
2022-10-21T06:44:10.063Z,15.62
2022-10-21T06:45:12.703Z,15.62
2022-10-21T06:46:15.436Z,15.64
2022-10-21T06:47:18.113Z,15.66
2022-10-21T06:48:20.646Z,15.66
2022-10-21T06:49:22.192Z,15.67
2022-10-21T06:50:24.796Z,15.67
2022-10-21T06:51:29.187Z,15.69
2022-10-21T06:52:31.127Z,15.70
2022-10-21T06:53:36.559Z,15.70
2022-10-21T06:54:40.640Z,15.71
2022-10-21T06:55:43.214Z,15.71
2022-10-21T06:56:45.950Z,15.72
2022-10-21T06:57:48.521Z,15.73
2022-10-21T06:58:52.804Z,15.73
2022-10-21T06:59:54.333Z,15.73
2022-10-21T07:00:56.840Z,15.73
2022-10-21T07:02:00.909Z,15.74
2022-10-21T07:03:03.740Z,15.75
2022-10-21T07:04:06.997Z,15.76
2022-10-21T07:05:10.355Z,15.77
2022-10-21T07:06:12.305Z,15.78
2022-10-21T07:07:15.353Z,15.78
2022-10-21T07:08:19.820Z,15.78
2022-10-21T07:09:25.302Z,15.79
2022-10-21T07:10:26.867Z,15.80
2022-10-21T07:11:29.797Z,15.82
2022-10-21T07:12:32.522Z,15.82
2022-10-21T07:13:35.376Z,15.83
2022-10-21T07:14:39.227Z,15.83
2022-10-21T07:15:40.756Z,15.84
2022-10-21T07:16:43.510Z,15.86
2022-10-21T07:17:46.570Z,15.87
2022-10-21T07:18:49.137Z,15.89
2022-10-21T07:19:50.687Z,15.90
2022-10-21T07:20:53.203Z,15.91
2022-10-21T07:21:55.865Z,15.93
2022-10-21T07:22:58.495Z,15.94
2022-10-21T07:24:00.716Z,15.96
2022-10-21T07:25:04.873Z,15.96
2022-10-21T07:26:07.527Z,15.98
2022-10-21T07:27:10.021Z,15.99
2022-10-21T07:28:11.640Z,15.99
2022-10-21T07:29:14.257Z,16.02
2022-10-21T07:30:17.615Z,16.03
2022-10-21T07:31:21.849Z,16.04
2022-10-21T07:32:23.412Z,16.03
2022-10-21T07:33:26.045Z,16.04
2022-10-21T07:34:28.692Z,16.05
2022-10-21T07:35:30.253Z,16.05
2022-10-21T07:36:35.154Z,16.05
2022-10-21T07:37:37.063Z,16.06
2022-10-21T07:38:41.164Z,16.06
2022-10-21T07:39:42.734Z,16.08
2022-10-21T07:40:45.663Z,16.09
2022-10-21T07:41:49.273Z,16.10
2022-10-21T07:42:51.779Z,16.11
2022-10-21T07:43:55.066Z,16.11
2022-10-21T07:44:59.362Z,16.12
2022-10-21T07:46:06.101Z,16.11
2022-10-21T07:47:09.617Z,16.13
2022-10-21T07:48:11.152Z,16.13
2022-10-21T07:49:15.034Z,16.13
2022-10-21T07:50:17.942Z,16.14
2022-10-21T07:51:26.884Z,16.13
2022-10-21T07:52:33.705Z,16.14
2022-10-21T07:53:38.661Z,16.14
2022-10-21T07:54:41.199Z,16.15
2022-10-21T07:55:42.731Z,16.15
2022-10-21T07:56:47.480Z,16.16
2022-10-21T07:57:49.057Z,16.16
2022-10-21T07:58:52.442Z,16.18
2022-10-21T07:59:55.029Z,16.19
2022-10-21T08:00:58.473Z,16.19
2022-10-21T08:02:02.450Z,16.19
2022-10-21T08:03:03.944Z,16.20
2022-10-21T08:04:07.404Z,16.20
2022-10-21T08:05:10.294Z,16.20
2022-10-21T08:06:13.690Z,16.22
2022-10-21T08:07:16.250Z,16.21
2022-10-21T08:08:21.596Z,16.22
2022-10-21T08:09:24.085Z,16.22
2022-10-21T08:10:25.613Z,16.23
2022-10-21T08:11:30.613Z,16.23
2022-10-21T08:12:32.169Z,16.23
2022-10-21T08:13:34.879Z,16.24
2022-10-21T08:14:37.492Z,16.24
2022-10-21T08:15:41.928Z,16.24
2022-10-21T08:16:44.413Z,16.24
2022-10-21T08:17:48.285Z,16.24
2022-10-21T08:18:50.018Z,16.25
2022-10-21T08:19:58.620Z,16.24
2022-10-21T08:21:02.661Z,16.24
2022-10-21T08:22:06.337Z,16.24
2022-10-21T08:23:08.087Z,16.24
2022-10-21T08:24:10.725Z,16.24
2022-10-21T08:25:16.576Z,16.25
2022-10-21T08:26:21.230Z,16.24
2022-10-21T08:27:23.689Z,16.26
2022-10-21T08:28:27.159Z,16.26
2022-10-21T08:29:29.662Z,16.26
2022-10-21T08:30:31.810Z,16.26
2022-10-21T08:31:35.980Z,16.27
2022-10-21T08:32:38.779Z,16.26
2022-10-21T08:33:44.059Z,16.27
2022-10-21T08:34:46.660Z,16.26
2022-10-21T08:35:48.221Z,16.25
2022-10-21T08:36:50.957Z,16.26
2022-10-21T08:37:52.555Z,16.27
2022-10-21T08:38:55.595Z,16.28
2022-10-21T08:39:57.192Z,16.29
2022-10-21T08:41:00.823Z,16.29
2022-10-21T08:42:08.073Z,16.29
2022-10-21T08:43:15.695Z,16.28
2022-10-21T08:44:42.790Z,16.27
2022-10-21T08:45:49.302Z,16.27
2022-10-21T08:46:58.377Z,16.28
2022-10-21T08:48:06.534Z,16.28
2022-10-21T08:49:16.340Z,16.28
2022-10-21T08:50:22.680Z,16.28
2022-10-21T08:51:29.568Z,16.28
2022-10-21T08:52:40.864Z,16.28
2022-10-21T08:53:48.666Z,16.27
2022-10-21T08:54:56.079Z,16.28
2022-10-21T08:56:03.261Z,16.27
2022-10-21T08:57:05.155Z,16.27
2022-10-21T08:58:16.233Z,16.28
2022-10-21T08:59:21.756Z,16.28
2022-10-21T09:00:26.884Z,16.28
2022-10-21T09:01:34.444Z,16.28
2022-10-21T09:02:47.451Z,16.27
2022-10-21T09:03:55.938Z,16.27
2022-10-21T09:05:19.742Z,16.27
2022-10-21T09:06:25.713Z,16.26
2022-10-21T09:07:36.231Z,16.27
2022-10-21T09:08:47.374Z,16.26
2022-10-21T09:09:55.677Z,16.28
2022-10-21T09:11:02.382Z,16.29
2022-10-21T09:12:09.869Z,16.29
2022-10-21T09:13:17.528Z,16.29
2022-10-21T09:14:43.419Z,16.29
2022-10-21T09:15:56.571Z,16.31
2022-10-21T09:17:06.139Z,16.31
2022-10-21T09:18:22.415Z,16.34
2022-10-21T09:19:35.571Z,16.36
2022-10-21T09:20:56.040Z,16.38
2022-10-21T09:22:34.318Z,16.40
2022-10-21T09:23:52.896Z,16.42
2022-10-21T09:25:04.848Z,16.44
2022-10-21T09:26:23.384Z,16.48
2022-10-21T09:27:54.806Z,16.50
2022-10-21T09:28:51.657Z,16.52
2022-10-21T09:29:58.766Z,16.55
2022-10-21T09:31:04.864Z,16.57
2022-10-21T09:32:15.638Z,16.57
2022-10-21T09:33:24.086Z,16.58
2022-10-21T09:34:38.968Z,16.58
2022-10-21T09:35:48.043Z,16.57
2022-10-21T09:36:52.297Z,16.60
2022-10-21T09:37:58.467Z,16.60
2022-10-21T09:39:03.182Z,16.60
2022-10-21T09:40:16.070Z,16.59
2022-10-21T09:42:42.707Z,16.58
2022-10-21T09:43:48.671Z,16.57
2022-10-21T09:44:51.543Z,16.57
2022-10-21T09:45:55.157Z,16.57
2022-10-21T09:46:56.709Z,16.58
2022-10-21T09:48:01.615Z,16.56
2022-10-21T09:50:27.634Z,16.55
2022-10-21T09:51:34.944Z,16.55
2022-10-21T09:52:37.952Z,16.56
2022-10-21T09:53:52.928Z,16.58
2022-10-21T09:54:57.696Z,16.58
2022-10-21T09:56:03.714Z,16.58
2022-10-21T09:57:16.713Z,16.58
2022-10-21T09:58:26.782Z,16.58
2022-10-21T09:59:32.886Z,16.58
2022-10-21T10:00:45.593Z,16.57
2022-10-21T10:01:49.910Z,16.59
2022-10-21T10:02:51.673Z,16.58
2022-10-21T10:03:54.920Z,16.58
2022-10-21T10:04:56.832Z,16.59
2022-10-21T10:05:59.846Z,16.58
2022-10-21T10:07:19.371Z,16.59
2022-10-21T10:08:29.410Z,16.58
2022-10-21T10:09:33.896Z,16.58
2022-10-21T10:10:35.408Z,16.57
2022-10-21T10:11:50.206Z,16.58
2022-10-21T10:12:56.885Z,16.58
2022-10-21T10:14:17.761Z,16.56
2022-10-21T10:15:29.316Z,16.56
2022-10-21T10:16:34.113Z,16.56
2022-10-21T10:17:39.644Z,16.56
2022-10-21T10:18:42.110Z,16.56
2022-10-21T10:19:44.723Z,16.57
2022-10-21T10:20:46.239Z,16.56
2022-10-21T10:22:10.736Z,16.56
2022-10-21T10:23:19.921Z,16.55
2022-10-21T10:24:22.845Z,16.54
2022-10-21T10:25:28.442Z,16.55
2022-10-21T10:26:34.165Z,16.55
2022-10-21T10:27:36.503Z,16.55
2022-10-21T10:28:39.234Z,16.55
2022-10-21T10:29:42.517Z,16.56
2022-10-21T10:30:49.452Z,16.56
2022-10-21T10:31:55.406Z,16.56
2022-10-21T10:32:58.243Z,16.56
2022-10-21T10:34:04.546Z,16.55
2022-10-21T10:35:15.279Z,16.55
2022-10-21T10:36:28.654Z,16.54
2022-10-21T10:37:36.166Z,16.56
2022-10-21T10:38:42.078Z,16.55
2022-10-21T10:39:49.210Z,16.55
2022-10-21T10:40:54.207Z,16.56
2022-10-21T10:41:59.852Z,16.57
2022-10-21T10:43:07.092Z,16.58
2022-10-21T10:44:12.451Z,16.57
2022-10-21T10:45:20.258Z,16.60
2022-10-21T10:46:25.606Z,16.60
2022-10-21T10:47:31.597Z,16.61
2022-10-21T10:48:37.631Z,16.61
2022-10-21T10:49:43.720Z,16.63
2022-10-21T10:50:47.220Z,16.64
2022-10-21T10:52:04.224Z,16.67
2022-10-21T10:53:24.664Z,16.70
2022-10-21T10:54:29.303Z,16.73
2022-10-21T10:55:33.909Z,16.74
2022-10-21T10:56:42.195Z,16.77
2022-10-21T10:57:58.986Z,16.77
2022-10-21T10:59:16.951Z,16.79
2022-10-21T11:00:21.079Z,16.80
2022-10-21T11:01:27.888Z,16.81
2022-10-21T11:02:38.977Z,16.82
2022-10-21T11:03:45.815Z,16.82
2022-10-21T11:05:07.915Z,16.84
2022-10-21T11:06:17.371Z,16.85
2022-10-21T11:07:26.644Z,16.87
2022-10-21T11:08:35.197Z,16.87
2022-10-21T11:09:38.363Z,16.90
2022-10-21T11:10:44.600Z,16.93
2022-10-21T11:11:49.425Z,16.96
2022-10-21T11:12:50.965Z,17.01
2022-10-21T11:13:54.444Z,17.05
2022-10-21T11:14:58.378Z,17.10
2022-10-21T11:16:12.389Z,17.13
2022-10-21T11:17:19.994Z,17.20
2022-10-21T11:18:29.108Z,17.27
2022-10-21T11:19:41.189Z,17.32
2022-10-21T11:20:54.079Z,17.36
2022-10-21T11:22:06.259Z,17.40
2022-10-21T11:23:29.035Z,17.45
2022-10-21T11:24:55.239Z,17.47
2022-10-21T11:26:03.981Z,17.50
2022-10-21T11:27:13.486Z,17.53
2022-10-21T11:28:27.433Z,17.56
2022-10-21T11:29:40.787Z,17.57
2022-10-21T11:30:58.256Z,17.58
2022-10-21T11:32:12.649Z,17.58
2022-10-21T11:33:26.357Z,17.61
2022-10-21T11:34:40.317Z,17.64
2022-10-21T11:35:54.267Z,17.68
2022-10-21T11:37:06.656Z,17.69
2022-10-21T11:38:30.482Z,17.72
2022-10-21T11:39:43.030Z,17.73
2022-10-21T11:40:49.865Z,17.76
2022-10-21T11:42:01.138Z,17.79
2022-10-21T11:43:16.390Z,17.82
2022-10-21T11:44:29.630Z,17.84
2022-10-21T11:45:39.607Z,17.87
2022-10-21T11:46:53.453Z,17.90
2022-10-21T11:48:02.459Z,17.92
2022-10-21T11:49:18.783Z,17.95
2022-10-21T11:50:32.381Z,17.99
2022-10-21T11:51:43.261Z,18.03
2022-10-21T11:53:11.546Z,18.05
2022-10-21T11:54:37.136Z,18.05
2022-10-21T11:55:50.456Z,18.07
2022-10-21T11:56:59.375Z,18.10
2022-10-21T11:58:13.340Z,18.13
2022-10-21T11:59:27.136Z,18.17
2022-10-21T12:00:38.052Z,18.21
2022-10-21T12:01:48.599Z,18.26
2022-10-21T12:03:14.409Z,18.28
2022-10-21T12:04:26.132Z,18.31
2022-10-21T12:05:32.605Z,18.35
2022-10-21T12:06:38.748Z,18.37
2022-10-21T12:07:58.446Z,18.38
2022-10-21T12:09:03.702Z,18.40
2022-10-21T12:10:13.467Z,18.42
2022-10-21T12:11:21.842Z,18.44
2022-10-21T12:12:30.055Z,18.48
2022-10-21T12:13:36.841Z,18.55
2022-10-21T12:14:42.341Z,18.60
2022-10-21T12:15:49.375Z,18.66
2022-10-21T12:16:53.715Z,18.67
2022-10-21T12:17:57.661Z,18.68
2022-10-21T12:19:05.478Z,18.72
2022-10-21T12:20:18.071Z,18.70
2022-10-21T12:21:26.882Z,18.70
2022-10-21T12:22:33.047Z,18.72
2022-10-21T12:23:34.799Z,18.75
2022-10-21T12:24:48.388Z,18.79
2022-10-21T12:26:04.724Z,18.81
2022-10-21T12:27:18.371Z,18.83
2022-10-21T12:28:29.119Z,18.86
2022-10-21T12:29:44.447Z,18.89
2022-10-21T12:30:54.847Z,18.91
2022-10-21T12:32:06.180Z,18.92
2022-10-21T12:33:17.050Z,18.94
2022-10-21T12:34:19.773Z,18.95
2022-10-21T12:35:26.996Z,18.98
2022-10-21T12:36:44.805Z,19.01
2022-10-21T12:38:06.972Z,19.05
2022-10-21T12:39:16.632Z,19.11
2022-10-21T12:40:35.830Z,19.14
2022-10-21T12:41:39.298Z,19.18
2022-10-21T12:42:46.595Z,19.20
2022-10-21T12:43:54.673Z,19.23
2022-10-21T12:44:56.281Z,19.25
2022-10-21T12:46:05.329Z,19.27
2022-10-21T12:47:24.842Z,19.28
2022-10-21T12:48:32.545Z,19.29
2022-10-21T12:49:36.336Z,19.31
2022-10-21T12:50:38.212Z,19.31
2022-10-21T12:51:41.084Z,19.33
2022-10-21T12:52:45.876Z,19.36
2022-10-21T12:55:02.084Z,19.37
2022-10-21T12:56:05.326Z,19.37
2022-10-21T12:57:10.938Z,19.37
2022-10-21T12:58:25.448Z,19.34
2022-10-21T12:59:31.761Z,19.35
2022-10-21T13:00:54.859Z,19.32
2022-10-21T13:02:27.083Z,19.31
2022-10-21T13:03:52.008Z,19.30
2022-10-21T13:04:57.286Z,19.33
2022-10-21T13:06:02.724Z,19.35
2022-10-21T13:07:06.377Z,19.36
2022-10-21T13:08:27.105Z,19.37
2022-10-21T13:09:34.870Z,19.39
2022-10-21T13:10:37.360Z,19.40
2022-10-21T13:11:40.870Z,19.40
2022-10-21T13:12:43.486Z,19.41
2022-10-21T13:13:48.396Z,19.42
2022-10-21T13:14:52.500Z,19.43
2022-10-21T13:15:55.430Z,19.44
2022-10-21T13:17:17.218Z,19.43
2022-10-21T13:19:04.868Z,19.43
2022-10-21T13:20:53.060Z,19.41
2022-10-21T13:22:03.293Z,19.40
2022-10-21T13:23:31.679Z,19.40
2022-10-21T13:24:35.093Z,19.40
2022-10-21T13:25:36.887Z,19.42
2022-10-21T13:26:41.629Z,19.44
2022-10-21T13:27:46.160Z,19.44
2022-10-21T13:29:21.823Z,19.39
2022-10-21T13:30:29.123Z,19.39
2022-10-21T13:31:32.128Z,19.39
2022-10-21T13:32:36.111Z,19.37
2022-10-21T13:33:38.748Z,19.36
2022-10-21T13:34:43.547Z,19.36
2022-10-21T13:35:48.699Z,19.36
2022-10-21T13:36:52.774Z,19.34
2022-10-21T13:37:58.819Z,19.30
2022-10-21T13:39:04.961Z,19.30
2022-10-21T13:40:15.411Z,19.27
2022-10-21T13:41:22.522Z,19.23
2022-10-21T13:42:27.469Z,19.26
2022-10-21T13:43:39.179Z,19.25
2022-10-21T13:44:50.207Z,19.27
2022-10-21T13:45:58.312Z,19.25
2022-10-21T13:47:18.688Z,19.21
2022-10-21T13:48:25.178Z,19.21
2022-10-21T13:49:28.764Z,19.21
2022-10-21T13:50:33.909Z,19.20
2022-10-21T13:51:46.541Z,19.19
2022-10-21T13:52:48.083Z,19.16
2022-10-21T13:53:54.675Z,19.15
2022-10-21T13:54:57.012Z,19.11
2022-10-21T13:56:02.848Z,19.10
2022-10-21T13:57:07.403Z,19.09
2022-10-21T13:58:16.333Z,19.09
2022-10-21T13:59:24.693Z,19.12
2022-10-21T14:00:30.205Z,19.16
2022-10-21T14:01:46.299Z,19.19
2022-10-21T14:02:48.672Z,19.21
2022-10-21T14:03:53.107Z,19.23
2022-10-21T14:04:54.799Z,19.24
2022-10-21T14:06:01.246Z,19.25
2022-10-21T14:07:07.799Z,19.27
2022-10-21T14:08:21.101Z,19.27
2022-10-21T14:09:28.596Z,19.30
2022-10-21T14:10:30.931Z,19.31
2022-10-21T14:11:37.593Z,19.33
2022-10-21T14:12:44.836Z,19.35
2022-10-21T14:13:49.102Z,19.35
2022-10-21T14:14:52.756Z,19.36
2022-10-21T14:15:57.269Z,19.38
2022-10-21T14:17:02.685Z,19.37